Rockford, Washington
Current Conditions -  °F | °C
As of 1:53 AM on Tuesday 21 Oct 2014 (Local Time) from KSFF Reporting Station
Light Rain Light Rain  
Wind Chill: 11°   Ceiling: 4700
Heat Index: 11°   Visibility: 10mi
Dew Point:   Wind: 7mph
Humidity: 80%   Direction: 220°SW
Pressure: 29.87"   Gusts: NA
Location:  47.45°N, 117.13°W
Report Text: KSFF 210853Z AUTO 22006KT 10SM -RA SCT023 BKN047 OVC070 11/08 A2987 RMK AO2 RAB25 SLP106 P0001 60001 T01110078 53006
Loading
Personal Weather Stations






























Interactive Weather Map
Tropical Storm Tracking
New forecast layout! Learn more

10-Day Weather Forecast

Advertisements
Track Severe Weather on mobile